createdAt,value
2022-11-10T00:00:13.635Z,3.43
2022-11-10T00:03:04.288Z,3.77
2022-11-10T00:05:51.309Z,3.17
2022-11-10T00:08:38.389Z,3.67
2022-11-10T00:11:25.892Z,3.23
2022-11-10T00:14:32.120Z,3.43
2022-11-10T00:17:19.648Z,3.20
2022-11-10T00:20:07.389Z,4.40
2022-11-10T00:22:56.603Z,4.30
2022-11-10T00:25:43.750Z,3.17
2022-11-10T00:28:32.570Z,3.00
2022-11-10T00:31:20.976Z,3.53
2022-11-10T00:34:08.090Z,4.27
2022-11-10T00:36:56.839Z,4.00
2022-11-10T00:39:43.903Z,3.63
2022-11-10T00:42:30.845Z,3.73
2022-11-10T00:45:18.209Z,4.10
2022-11-10T00:48:07.310Z,4.03
2022-11-10T00:50:54.570Z,4.60
2022-11-10T00:53:41.886Z,3.10
2022-11-10T00:56:29.151Z,3.27
2022-11-10T00:59:15.857Z,3.60
2022-11-10T01:02:03.134Z,3.13
2022-11-10T01:04:51.540Z,3.77
2022-11-10T01:07:38.461Z,3.70
2022-11-10T01:10:25.261Z,3.53
2022-11-10T01:13:12.007Z,4.13
2022-11-10T01:15:59.072Z,3.40
2022-11-10T01:18:50.342Z,3.53
2022-11-10T01:21:39.044Z,3.37
2022-11-10T01:24:26.364Z,3.60
2022-11-10T01:27:13.284Z,3.27
2022-11-10T01:30:00.604Z,3.73
2022-11-10T01:32:47.479Z,3.70
2022-11-10T01:35:35.033Z,6.83
2022-11-10T01:38:23.764Z,3.47
2022-11-10T01:41:12.973Z,4.00
2022-11-10T01:44:18.302Z,3.83
2022-11-10T01:47:05.497Z,3.60
2022-11-10T01:49:52.727Z,4.33
2022-11-10T01:52:40.727Z,3.60
2022-11-10T01:55:30.477Z,3.80
2022-11-10T01:58:22.189Z,3.20
2022-11-10T02:01:09.800Z,3.67
2022-11-10T02:04:00.473Z,3.70
2022-11-10T02:06:49.761Z,3.40
2022-11-10T02:09:39.785Z,4.60
2022-11-10T02:12:37.921Z,3.43
2022-11-10T02:15:26.324Z,4.00
2022-11-10T02:18:13.844Z,3.73
2022-11-10T02:21:05.517Z,3.50
2022-11-10T02:23:54.669Z,4.13
2022-11-10T02:26:46.849Z,3.97
2022-11-10T02:29:34.937Z,3.37
2022-11-10T02:32:21.599Z,4.70
2022-11-10T02:35:11.490Z,3.20
2022-11-10T02:38:00.546Z,3.83
2022-11-10T02:40:47.834Z,3.53
2022-11-10T02:43:36.065Z,3.90
2022-11-10T02:46:23.446Z,3.90
2022-11-10T02:49:11.025Z,4.00
2022-11-10T02:51:58.718Z,3.27
2022-11-10T02:54:47.408Z,4.23
2022-11-10T02:57:34.436Z,4.07
2022-11-10T03:00:22.104Z,3.47
2022-11-10T03:03:09.406Z,3.63
2022-11-10T03:05:56.559Z,3.27
2022-11-10T03:08:43.569Z,4.23
2022-11-10T03:11:32.627Z,4.10
2022-11-10T03:14:20.010Z,3.87
2022-11-10T03:17:07.509Z,3.80
2022-11-10T03:19:54.328Z,3.73
2022-11-10T03:22:42.583Z,3.80
2022-11-10T03:25:29.529Z,4.53
2022-11-10T03:28:17.873Z,3.57
2022-11-10T03:31:05.526Z,4.53
2022-11-10T03:33:53.064Z,5.00
2022-11-10T03:36:40.284Z,4.10
2022-11-10T03:39:27.361Z,3.23
2022-11-10T03:42:14.436Z,3.93
2022-11-10T03:45:02.969Z,3.83
2022-11-10T03:47:51.065Z,5.10
2022-11-10T03:50:38.721Z,4.10
2022-11-10T03:53:26.227Z,4.00
2022-11-10T03:56:13.667Z,3.77
2022-11-10T03:59:00.771Z,4.10
2022-11-10T04:01:49.359Z,3.20
2022-11-10T04:04:53.917Z,3.90
2022-11-10T04:08:09.731Z,4.00
2022-11-10T04:10:56.852Z,3.53
2022-11-10T04:14:01.687Z,3.90
2022-11-10T04:16:50.220Z,3.97
2022-11-10T04:19:37.429Z,3.67
2022-11-10T04:22:38.159Z,3.77
2022-11-10T04:25:25.278Z,3.67
2022-11-10T04:28:12.546Z,4.37
2022-11-10T04:30:59.729Z,3.87
2022-11-10T04:33:49.332Z,4.30
2022-11-10T04:36:38.157Z,4.73
2022-11-10T04:39:25.012Z,3.90
2022-11-10T04:42:11.804Z,4.63
2022-11-10T04:44:58.890Z,5.43
2022-11-10T04:47:45.727Z,3.17
2022-11-10T04:50:34.151Z,4.07
2022-11-10T04:53:21.423Z,4.20
2022-11-10T04:56:11.145Z,3.63
2022-11-10T04:58:58.067Z,4.23
2022-11-10T05:01:45.061Z,4.23
2022-11-10T05:04:32.433Z,4.67
2022-11-10T05:07:21.063Z,4.47
2022-11-10T05:10:08.364Z,5.07
2022-11-10T05:12:58.884Z,4.37
2022-11-10T05:15:47.007Z,4.63
2022-11-10T05:18:33.987Z,4.43
2022-11-10T05:21:20.687Z,3.93
2022-11-10T05:24:09.409Z,3.70
2022-11-10T05:26:56.414Z,5.30
2022-11-10T05:29:43.011Z,4.13
2022-11-10T05:32:31.150Z,4.83
2022-11-10T05:35:18.473Z,5.20
2022-11-10T05:38:07.008Z,5.10
2022-11-10T05:40:55.185Z,4.30
2022-11-10T05:43:42.506Z,6.10
2022-11-10T05:46:31.625Z,4.57
2022-11-10T05:49:18.971Z,4.27
2022-11-10T05:52:06.190Z,3.90
2022-11-10T05:54:55.481Z,4.13
2022-11-10T05:57:45.856Z,3.70
2022-11-10T06:00:33.708Z,4.67
2022-11-10T06:03:21.895Z,5.20
2022-11-10T06:06:09.833Z,4.53
2022-11-10T06:08:59.380Z,4.83
2022-11-10T06:11:46.818Z,5.43
2022-11-10T06:14:35.869Z,3.77
2022-11-10T06:17:22.792Z,4.23
2022-11-10T06:20:10.712Z,4.53
2022-11-10T06:23:02.571Z,4.40
2022-11-10T06:25:49.762Z,4.40
2022-11-10T06:28:36.989Z,5.17
2022-11-10T06:31:25.735Z,5.37
2022-11-10T06:34:13.148Z,4.10
2022-11-10T06:37:00.977Z,4.57
2022-11-10T06:39:47.852Z,4.40
2022-11-10T06:42:35.262Z,4.83
2022-11-10T06:45:23.339Z,4.50
2022-11-10T06:48:14.790Z,6.03
2022-11-10T06:51:02.358Z,4.53
2022-11-10T06:53:49.133Z,4.33
2022-11-10T06:56:36.146Z,4.63
2022-11-10T06:59:23.208Z,4.50
2022-11-10T07:02:14.810Z,5.60
2022-11-10T07:05:03.185Z,4.87
2022-11-10T07:07:57.605Z,4.70
2022-11-10T07:10:46.406Z,4.23
2022-11-10T07:13:33.506Z,4.23
2022-11-10T07:16:24.501Z,4.00
2022-11-10T07:19:11.812Z,4.83
2022-11-10T07:22:01.018Z,4.60
2022-11-10T07:24:48.510Z,4.17
2022-11-10T07:27:38.409Z,5.13
2022-11-10T07:30:26.719Z,4.80
2022-11-10T07:33:17.031Z,3.93
2022-11-10T07:36:05.549Z,4.80
2022-11-10T07:38:54.378Z,4.33
2022-11-10T07:41:42.105Z,3.90
2022-11-10T07:44:29.367Z,4.13
2022-11-10T07:47:18.478Z,4.73
2022-11-10T07:50:06.315Z,4.50
2022-11-10T07:52:53.575Z,3.67
2022-11-10T07:55:44.312Z,4.10
2022-11-10T07:58:32.777Z,4.17
2022-11-10T08:01:20.385Z,4.03
2022-11-10T08:04:08.145Z,4.90
2022-11-10T08:06:55.924Z,4.70
2022-11-10T08:09:43.376Z,4.77
2022-11-10T08:12:33.953Z,4.80
2022-11-10T08:15:21.345Z,4.57
2022-11-10T08:18:15.083Z,4.50
2022-11-10T08:21:02.570Z,4.27
2022-11-10T08:23:49.874Z,4.27
2022-11-10T08:26:37.150Z,4.70
2022-11-10T08:29:28.644Z,5.27
2022-11-10T08:32:15.934Z,4.33
2022-11-10T08:35:03.738Z,4.87
2022-11-10T08:37:51.249Z,4.53
2022-11-10T08:40:39.140Z,4.47
2022-11-10T08:43:26.354Z,4.50
2022-11-10T08:46:14.922Z,5.10
2022-11-10T08:49:02.245Z,5.00
2022-11-10T08:51:49.326Z,3.63
2022-11-10T08:54:36.496Z,4.50
2022-11-10T08:57:23.992Z,4.37
2022-11-10T09:00:12.709Z,4.90
2022-11-10T09:03:06.339Z,5.00
2022-11-10T09:05:58.217Z,3.93
2022-11-10T09:08:46.438Z,4.23
2022-11-10T09:11:33.583Z,4.43
2022-11-10T09:14:20.583Z,4.63
2022-11-10T09:17:07.999Z,4.53
2022-11-10T09:19:56.837Z,3.80
2022-11-10T09:22:43.965Z,4.23
2022-11-10T09:25:30.835Z,4.27
2022-11-10T09:28:18.941Z,5.30
2022-11-10T09:31:06.177Z,3.97
2022-11-10T09:33:53.619Z,3.90
2022-11-10T09:36:43.314Z,4.30
2022-11-10T09:39:30.765Z,3.73
2022-11-10T09:42:29.351Z,3.60
2022-11-10T09:45:27.333Z,3.57
2022-11-10T09:48:21.091Z,3.27
2022-11-10T09:51:11.127Z,4.30
2022-11-10T09:54:04.249Z,4.00
2022-11-10T09:56:56.963Z,3.87
2022-11-10T09:59:45.581Z,4.17
2022-11-10T10:02:37.596Z,4.23
2022-11-10T10:05:37.015Z,4.63
2022-11-10T10:08:34.077Z,3.87
2022-11-10T10:11:41.540Z,3.10
2022-11-10T10:14:56.575Z,3.60
2022-11-10T10:17:54.852Z,3.27
2022-11-10T10:20:54.275Z,4.00
2022-11-10T10:27:02.209Z,4.07
2022-11-10T10:29:50.835Z,3.83
2022-11-10T10:32:37.853Z,3.40
2022-11-10T10:35:25.534Z,4.03
2022-11-10T10:38:22.164Z,3.70
2022-11-10T10:41:20.932Z,3.10
2022-11-10T10:44:14.867Z,4.27
2022-11-10T10:47:03.258Z,3.70
2022-11-10T10:49:50.866Z,3.70
2022-11-10T10:52:37.829Z,3.03
2022-11-10T10:55:29.551Z,3.50
2022-11-10T10:58:26.944Z,3.27
2022-11-10T11:01:28.644Z,2.97
2022-11-10T11:04:32.514Z,3.30
2022-11-10T11:07:24.759Z,3.50
2022-11-10T11:10:23.547Z,3.93
2022-11-10T11:13:22.751Z,2.83
2022-11-10T11:16:12.968Z,3.27
2022-11-10T11:19:01.805Z,3.30
2022-11-10T11:22:11.969Z,4.00
2022-11-10T11:25:10.548Z,3.10
2022-11-10T11:28:10.378Z,2.97
2022-11-10T11:31:08.222Z,3.00
2022-11-10T11:34:05.952Z,2.70
2022-11-10T11:37:08.421Z,3.57
2022-11-10T11:40:06.611Z,2.97
2022-11-10T11:43:05.685Z,4.13
2022-11-10T11:46:01.240Z,2.33
2022-11-10T11:48:53.195Z,3.10
2022-11-10T11:51:51.056Z,2.90
2022-11-10T11:54:49.546Z,3.30
2022-11-10T11:57:51.610Z,2.63
2022-11-10T12:00:47.226Z,3.43
2022-11-10T12:03:48.933Z,2.63
2022-11-10T12:06:53.990Z,2.50
2022-11-10T12:09:46.275Z,2.50
2022-11-10T12:13:06.716Z,2.47
2022-11-10T12:16:01.508Z,1.97
2022-11-10T12:18:57.793Z,3.17
2022-11-10T12:21:52.892Z,2.70
2022-11-10T12:24:56.375Z,2.70
2022-11-10T12:27:48.453Z,2.70
2022-11-10T12:30:38.115Z,2.70
2022-11-10T12:33:39.325Z,2.67
2022-11-10T12:36:29.498Z,3.03
2022-11-10T12:39:22.645Z,2.87
2022-11-10T12:42:16.343Z,2.20
2022-11-10T12:45:06.737Z,2.53
2022-11-10T12:47:55.661Z,2.07
2022-11-10T12:50:50.690Z,2.77
2022-11-10T12:53:41.471Z,2.70
2022-11-10T12:56:35.745Z,2.90
2022-11-10T12:59:35.000Z,2.43
2022-11-10T13:02:29.135Z,4.10
2022-11-10T13:05:33.282Z,2.40
2022-11-10T13:08:37.144Z,2.23
2022-11-10T13:11:28.885Z,2.90
2022-11-10T13:14:26.379Z,2.90
2022-11-10T13:17:46.921Z,2.23
2022-11-10T13:20:48.512Z,2.10
2022-11-10T13:24:13.898Z,2.07
2022-11-10T13:27:01.654Z,2.67
2022-11-10T13:29:58.737Z,2.70
2022-11-10T13:32:45.653Z,2.60
2022-11-10T13:35:55.470Z,2.17
2022-11-10T13:38:46.132Z,3.07
2022-11-10T13:41:35.744Z,2.27
2022-11-10T13:44:26.668Z,2.50
2022-11-10T13:48:01.704Z,2.30
2022-11-10T13:50:57.544Z,4.27
2022-11-10T13:53:54.910Z,4.13
2022-11-10T13:57:00.497Z,2.83
2022-11-10T13:59:50.507Z,3.17
2022-11-10T14:02:48.420Z,2.73
2022-11-10T14:06:05.818Z,2.10
2022-11-10T14:08:57.538Z,2.73
2022-11-10T14:11:50.155Z,2.40
2022-11-10T14:14:53.115Z,2.37
2022-11-10T14:17:45.541Z,2.20
2022-11-10T14:20:40.663Z,3.17
2022-11-10T14:23:31.693Z,2.90
2022-11-10T14:26:26.406Z,2.40
2022-11-10T14:29:35.810Z,2.37
2022-11-10T14:32:26.409Z,2.40
2022-11-10T14:35:23.955Z,2.53
2022-11-10T14:38:20.930Z,2.23
2022-11-10T14:41:17.880Z,2.73
2022-11-10T14:44:06.991Z,2.33
2022-11-10T14:46:54.769Z,2.20
2022-11-10T14:49:42.273Z,2.37
2022-11-10T14:52:31.759Z,2.57
2022-11-10T14:55:22.097Z,2.40
2022-11-10T14:58:15.159Z,2.90
2022-11-10T15:01:03.488Z,2.87
2022-11-10T15:03:50.838Z,2.40
2022-11-10T15:06:38.567Z,2.47
2022-11-10T15:09:31.463Z,2.20
2022-11-10T15:12:24.764Z,2.57
2022-11-10T15:15:23.177Z,2.03
2022-11-10T15:18:27.820Z,3.13
2022-11-10T15:21:16.730Z,2.83
2022-11-10T15:24:07.682Z,2.57
2022-11-10T15:26:56.615Z,2.10
2022-11-10T15:29:43.924Z,2.10
2022-11-10T15:32:36.028Z,2.47
2022-11-10T15:35:29.879Z,2.97
2022-11-10T15:38:32.000Z,3.70
2022-11-10T15:41:27.439Z,3.53
2022-11-10T15:44:21.418Z,3.27
2022-11-10T15:47:13.809Z,5.60
2022-11-10T15:50:02.409Z,3.13
2022-11-10T15:52:49.198Z,3.17
2022-11-10T15:55:36.200Z,4.87
2022-11-10T15:58:24.540Z,3.53
2022-11-10T16:01:14.358Z,8.20
2022-11-10T16:04:01.661Z,4.50
2022-11-10T16:06:48.958Z,3.67
2022-11-10T16:09:36.418Z,3.63
2022-11-10T16:12:24.515Z,2.20
2022-11-10T16:15:21.338Z,2.57
2022-11-10T16:18:14.012Z,2.63
2022-11-10T16:21:01.074Z,2.50
2022-11-10T16:23:48.697Z,2.60
2022-11-10T16:26:35.768Z,2.40
2022-11-10T16:29:23.040Z,2.53
2022-11-10T16:32:12.432Z,2.50
2022-11-10T16:35:00.949Z,2.50
2022-11-10T16:37:48.543Z,2.37
2022-11-10T16:40:35.714Z,2.80
2022-11-10T16:43:23.022Z,3.20
2022-11-10T16:46:19.742Z,3.10
2022-11-10T16:49:08.984Z,2.73
2022-11-10T16:51:58.027Z,2.70
2022-11-10T16:54:45.460Z,3.03
2022-11-10T16:57:37.211Z,2.47
2022-11-10T17:00:27.595Z,2.73
2022-11-10T17:03:18.470Z,2.97
2022-11-10T17:06:06.499Z,2.97
2022-11-10T17:08:59.310Z,2.77
2022-11-10T17:11:46.265Z,2.97
2022-11-10T17:14:34.491Z,3.00
2022-11-10T17:17:25.570Z,2.90
2022-11-10T17:20:20.537Z,2.67
2022-11-10T17:23:08.780Z,3.13
2022-11-10T17:25:57.812Z,4.07
2022-11-10T17:28:44.942Z,5.30
2022-11-10T17:31:32.080Z,2.77
2022-11-10T17:34:19.354Z,5.30
2022-11-10T17:37:07.288Z,3.37
2022-11-10T17:39:55.267Z,3.33
2022-11-10T17:42:44.387Z,3.23
2022-11-10T17:45:31.362Z,3.00
2022-11-10T17:48:19.044Z,3.30
2022-11-10T17:51:07.359Z,3.20
2022-11-10T17:53:55.233Z,3.30
2022-11-10T17:56:43.257Z,3.03
2022-11-10T17:59:32.133Z,3.80
2022-11-10T18:02:19.345Z,3.20
2022-11-10T18:05:07.718Z,3.63
2022-11-10T18:07:55.399Z,3.00
2022-11-10T18:10:43.596Z,3.17
2022-11-10T18:13:30.912Z,3.73
2022-11-10T18:16:19.509Z,3.20
2022-11-10T18:19:06.678Z,3.53
2022-11-10T18:21:54.018Z,2.93
2022-11-10T18:24:42.588Z,3.17
2022-11-10T18:27:29.794Z,3.40
2022-11-10T18:30:18.806Z,3.23
2022-11-10T18:33:08.382Z,3.50
2022-11-10T18:36:01.685Z,3.00
2022-11-10T18:38:48.987Z,3.73
2022-11-10T18:41:52.356Z,3.43
2022-11-10T18:44:39.923Z,4.07
2022-11-10T18:47:27.356Z,3.50
2022-11-10T18:50:17.395Z,4.20
2022-11-10T18:53:04.742Z,3.77
2022-11-10T18:55:55.940Z,4.70
2022-11-10T18:58:43.785Z,4.10
2022-11-10T19:01:31.144Z,3.30
2022-11-10T19:04:18.766Z,4.00
2022-11-10T19:07:08.055Z,3.57
2022-11-10T19:09:55.373Z,3.67
2022-11-10T19:12:42.446Z,3.23
2022-11-10T19:15:29.634Z,3.53
2022-11-10T19:18:17.123Z,3.73
2022-11-10T19:21:06.807Z,2.97
2022-11-10T19:23:58.106Z,3.90
2022-11-10T19:26:46.582Z,3.63
2022-11-10T19:29:34.528Z,3.30
2022-11-10T19:32:24.870Z,3.27
2022-11-10T19:35:13.605Z,4.33
2022-11-10T19:38:00.940Z,3.67
2022-11-10T19:40:49.727Z,3.73
2022-11-10T19:43:38.457Z,3.50
2022-11-10T19:46:27.811Z,3.73
2022-11-10T19:49:14.996Z,3.20
2022-11-10T19:52:02.066Z,3.20
2022-11-10T19:54:49.341Z,3.00
2022-11-10T19:57:38.186Z,3.20
2022-11-10T20:00:26.060Z,3.60
2022-11-10T20:03:13.754Z,3.30
2022-11-10T20:06:02.349Z,3.27
2022-11-10T20:08:50.854Z,4.17
2022-11-10T20:11:38.404Z,4.30
2022-11-10T20:14:27.382Z,3.30
2022-11-10T20:17:15.072Z,4.20
2022-11-10T20:20:05.331Z,3.77
2022-11-10T20:22:52.653Z,4.00
2022-11-10T20:25:41.562Z,4.00
2022-11-10T20:28:29.690Z,3.57
2022-11-10T20:31:23.763Z,4.23
2022-11-10T20:34:12.185Z,3.70
2022-11-10T20:37:08.442Z,4.03
2022-11-10T20:39:56.383Z,3.67
2022-11-10T20:42:44.394Z,3.47
2022-11-10T20:45:35.836Z,3.57
2022-11-10T20:48:25.837Z,3.90
2022-11-10T20:51:15.256Z,4.90
2022-11-10T20:54:02.565Z,4.87
2022-11-10T20:56:51.131Z,4.50
2022-11-10T20:59:39.282Z,4.30
2022-11-10T21:02:26.792Z,4.57
2022-11-10T21:05:16.430Z,4.47
2022-11-10T21:08:03.715Z,4.17
2022-11-10T21:10:55.559Z,3.90
2022-11-10T21:13:42.616Z,3.77
2022-11-10T21:16:30.216Z,3.87
2022-11-10T21:19:17.518Z,4.13
2022-11-10T21:22:06.182Z,3.43
2022-11-10T21:24:53.555Z,3.30
2022-11-10T21:27:40.907Z,3.30
2022-11-10T21:30:28.469Z,3.70
2022-11-10T21:33:15.946Z,4.10
2022-11-10T21:36:07.377Z,3.73
2022-11-10T21:38:56.443Z,3.20
2022-11-10T21:41:43.617Z,3.80
2022-11-10T21:44:31.313Z,3.63
2022-11-10T21:47:18.672Z,3.83
2022-11-10T21:50:07.979Z,4.03
2022-11-10T21:52:56.147Z,3.30
2022-11-10T21:55:45.303Z,3.43
2022-11-10T21:58:34.442Z,3.73
2022-11-10T22:01:23.431Z,3.67
2022-11-10T22:04:11.760Z,3.83
2022-11-10T22:07:16.304Z,3.83
2022-11-10T22:10:21.279Z,4.37
2022-11-10T22:13:34.094Z,3.83
2022-11-10T22:16:42.686Z,3.33
2022-11-10T22:19:30.025Z,3.93
2022-11-10T22:22:18.135Z,3.93
2022-11-10T22:25:05.938Z,3.73
2022-11-10T22:27:55.465Z,3.33
2022-11-10T22:30:45.240Z,3.17
2022-11-10T22:33:35.304Z,3.87
2022-11-10T22:36:23.067Z,5.00
2022-11-10T22:39:10.840Z,3.83
2022-11-10T22:42:16.184Z,3.47
2022-11-10T22:45:03.139Z,3.93
2022-11-10T22:48:09.682Z,3.83
2022-11-10T22:50:59.458Z,4.00
2022-11-10T22:53:46.496Z,3.90
2022-11-10T22:56:34.653Z,4.30
2022-11-10T22:59:21.755Z,4.10
2022-11-10T23:02:09.005Z,3.87
2022-11-10T23:04:58.210Z,3.50
2022-11-10T23:07:45.609Z,3.40
2022-11-10T23:10:32.573Z,3.77
2022-11-10T23:13:19.722Z,3.33
2022-11-10T23:16:08.836Z,3.30
2022-11-10T23:18:57.376Z,3.70
2022-11-10T23:21:45.823Z,4.13
2022-11-10T23:24:32.765Z,3.47
2022-11-10T23:27:20.209Z,4.10
2022-11-10T23:30:08.117Z,3.47
2022-11-10T23:32:56.073Z,3.40
2022-11-10T23:35:43.256Z,3.33
2022-11-10T23:38:33.908Z,4.57
2022-11-10T23:41:23.830Z,4.10
2022-11-10T23:44:11.647Z,4.43
2022-11-10T23:46:58.525Z,4.30
2022-11-10T23:49:45.620Z,3.37
2022-11-10T23:52:32.784Z,3.97
2022-11-10T23:55:21.425Z,3.47
2022-11-10T23:58:08.915Z,4.13
